createdAt,value
2022-11-22T00:00:32.806Z,94.66
2022-11-22T00:01:32.976Z,94.41
2022-11-22T00:02:32.905Z,93.58
2022-11-22T00:03:32.791Z,93.48
2022-11-22T00:04:32.768Z,93.68
2022-11-22T00:05:32.791Z,93.89
2022-11-22T00:06:32.776Z,93.99
2022-11-22T00:07:32.825Z,94.82
2022-11-22T00:08:32.718Z,95.18
2022-11-22T00:09:32.745Z,95.49
2022-11-22T00:10:32.686Z,94.97
2022-11-22T00:11:32.720Z,95.70
2022-11-22T00:12:32.668Z,95.28
2022-11-22T00:13:32.732Z,95.39
2022-11-22T00:14:32.640Z,95.18
2022-11-22T00:15:32.654Z,95.59
2022-11-22T00:16:32.630Z,95.14
2022-11-22T00:17:32.635Z,95.96
2022-11-22T00:18:32.631Z,95.54
2022-11-22T00:19:32.656Z,96.52
2022-11-22T00:20:32.585Z,96.42
2022-11-22T00:21:32.595Z,97.25
2022-11-22T00:22:32.565Z,97.04
2022-11-22T00:23:32.575Z,96.21
2022-11-22T00:24:32.544Z,96.94
2022-11-22T00:25:32.600Z,95.49
2022-11-22T00:26:32.533Z,96.21
2022-11-22T00:27:32.540Z,96.01
2022-11-22T00:28:32.505Z,96.21
2022-11-22T00:29:32.523Z,96.01
2022-11-22T00:30:32.481Z,96.11
2022-11-22T00:31:32.520Z,97.04
2022-11-22T00:32:32.463Z,96.31
2022-11-22T00:33:32.491Z,96.11
2022-11-22T00:34:32.435Z,97.25
2022-11-22T00:35:32.464Z,97.56
2022-11-22T00:36:32.417Z,96.31
2022-11-22T00:37:32.456Z,95.80
2022-11-22T00:38:32.392Z,96.62
2022-11-22T00:39:32.774Z,96.52
2022-11-22T00:40:32.374Z,96.31
2022-11-22T00:41:32.392Z,95.39
2022-11-22T00:42:32.356Z,96.01
2022-11-22T00:43:32.412Z,96.42
2022-11-22T00:44:32.343Z,97.35
2022-11-22T00:45:32.356Z,96.73
2022-11-22T00:46:32.365Z,95.59
2022-11-22T00:47:32.298Z,96.01
2022-11-22T00:48:32.319Z,96.52
2022-11-22T00:49:32.595Z,96.94
2022-11-22T00:50:32.287Z,96.21
2022-11-22T00:51:32.264Z,96.94
2022-11-22T00:52:32.268Z,96.31
2022-11-22T00:53:32.241Z,96.83
2022-11-22T00:54:32.263Z,96.73
2022-11-22T00:55:32.239Z,97.04
2022-11-22T00:56:32.234Z,97.14
2022-11-22T00:57:32.197Z,97.66
2022-11-22T00:58:32.204Z,96.42
2022-11-22T00:59:32.378Z,96.01
2022-11-22T01:00:32.264Z,96.52
2022-11-22T01:01:32.216Z,96.52
2022-11-22T01:02:32.165Z,96.52
2022-11-22T01:03:32.133Z,97.35
2022-11-22T01:04:32.153Z,96.42
2022-11-22T01:05:32.110Z,96.94
2022-11-22T01:06:32.145Z,96.94
2022-11-22T01:07:32.243Z,97.35
2022-11-22T01:08:32.109Z,97.35
2022-11-22T01:09:32.349Z,97.66
2022-11-22T01:10:32.087Z,96.94
2022-11-22T01:11:32.064Z,96.62
2022-11-22T01:12:32.063Z,95.90
2022-11-22T01:13:32.045Z,96.62
2022-11-22T01:14:32.039Z,97.25
2022-11-22T01:15:32.013Z,96.31
2022-11-22T01:16:32.016Z,96.83
2022-11-22T01:17:31.990Z,96.52
2022-11-22T01:18:32.017Z,95.59
2022-11-22T01:19:32.304Z,95.39
2022-11-22T01:20:31.982Z,96.31
2022-11-22T01:21:31.943Z,94.97
2022-11-22T01:22:31.968Z,96.42
2022-11-22T01:23:31.924Z,95.07
2022-11-22T01:24:31.942Z,95.14
2022-11-22T01:25:31.913Z,94.72
2022-11-22T01:26:31.919Z,95.54
2022-11-22T01:27:31.877Z,95.24
2022-11-22T01:28:31.906Z,94.51
2022-11-22T01:29:32.164Z,94.51
2022-11-22T01:30:31.880Z,94.31
2022-11-22T01:31:31.865Z,95.44
2022-11-22T01:32:31.848Z,95.24
2022-11-22T01:33:31.823Z,93.68
2022-11-22T01:34:31.844Z,94.72
2022-11-22T01:35:31.796Z,94.72
2022-11-22T01:36:31.803Z,92.55
2022-11-22T01:37:31.979Z,94.62
2022-11-22T01:38:31.789Z,93.89
2022-11-22T01:39:32.220Z,92.81
2022-11-22T01:40:31.769Z,93.54
2022-11-22T01:41:31.733Z,93.95
2022-11-22T01:42:31.766Z,93.33
2022-11-22T01:43:31.727Z,94.16
2022-11-22T01:44:31.728Z,94.47
2022-11-22T01:45:31.710Z,93.64
2022-11-22T01:46:31.704Z,94.06
2022-11-22T01:47:31.676Z,94.78
2022-11-22T01:48:31.684Z,94.98
2022-11-22T01:49:31.991Z,94.78
2022-11-22T01:50:31.660Z,93.23
2022-11-22T01:51:31.624Z,93.02
2022-11-22T01:52:31.640Z,92.61
2022-11-22T01:53:31.610Z,93.74
2022-11-22T01:54:31.626Z,93.54
2022-11-22T01:55:31.604Z,92.71
2022-11-22T01:56:31.601Z,92.50
2022-11-22T01:57:31.565Z,92.81
2022-11-22T01:58:31.575Z,92.61
2022-11-22T01:59:31.884Z,93.95
2022-11-22T02:00:31.553Z,94.68
2022-11-22T02:01:31.622Z,92.81
2022-11-22T02:02:31.537Z,93.54
2022-11-22T02:03:31.502Z,94.57
2022-11-22T02:04:31.529Z,93.02
2022-11-22T02:05:31.492Z,93.43
2022-11-22T02:06:31.503Z,93.23
2022-11-22T02:07:31.595Z,94.26
2022-11-22T02:08:31.484Z,93.64
2022-11-22T02:09:31.906Z,93.74
2022-11-22T02:10:31.455Z,93.12
2022-11-22T02:11:34.250Z,93.85
2022-11-22T02:12:31.450Z,93.64
2022-11-22T02:13:31.417Z,95.19
2022-11-22T02:14:31.405Z,94.68
2022-11-22T02:15:31.386Z,94.47
2022-11-22T02:16:31.398Z,94.37
2022-11-22T02:17:31.351Z,94.16
2022-11-22T02:18:31.382Z,93.64
2022-11-22T02:19:31.825Z,93.39
2022-11-22T02:20:31.343Z,93.49
2022-11-22T02:21:31.311Z,92.36
2022-11-22T02:22:31.329Z,93.29
2022-11-22T02:23:31.294Z,93.60
2022-11-22T02:24:31.302Z,93.70
2022-11-22T02:25:31.289Z,93.18
2022-11-22T02:26:31.280Z,93.35
2022-11-22T02:27:31.256Z,93.70
2022-11-22T02:28:31.270Z,92.93
2022-11-22T02:29:31.684Z,94.01
2022-11-22T02:30:31.258Z,94.32
2022-11-22T02:31:31.224Z,94.84
2022-11-22T02:32:31.245Z,95.36
2022-11-22T02:33:31.193Z,96.19
2022-11-22T02:34:31.199Z,97.01
2022-11-22T02:35:31.164Z,97.22
2022-11-22T02:36:31.195Z,97.22
2022-11-22T02:37:31.166Z,97.63
2022-11-22T02:38:31.162Z,97.94
2022-11-22T02:39:31.645Z,97.42
2022-11-22T02:40:31.136Z,97.84
2022-11-22T02:41:31.112Z,98.05
2022-11-22T02:42:31.125Z,97.84
2022-11-22T02:43:31.124Z,98.56
2022-11-22T02:44:31.101Z,98.92
2022-11-22T02:45:31.059Z,99.18
2022-11-22T02:46:31.086Z,99.74
2022-11-22T02:47:31.038Z,99.23
2022-11-22T02:48:31.052Z,99.33
2022-11-22T02:49:31.591Z,99.74
2022-11-22T02:50:31.034Z,99.99
2022-11-22T02:51:31.011Z,99.99
2022-11-22T02:52:31.017Z,99.99
2022-11-22T02:53:30.974Z,99.99
2022-11-22T02:54:30.992Z,99.99
2022-11-22T02:55:30.998Z,99.99
2022-11-22T02:56:30.964Z,99.99
2022-11-22T02:57:30.930Z,99.99
2022-11-22T02:58:30.946Z,99.99
2022-11-22T02:59:31.389Z,99.99
2022-11-22T03:00:30.941Z,99.99
2022-11-22T03:01:30.989Z,99.99
2022-11-22T03:02:30.907Z,99.99
2022-11-22T03:03:30.868Z,99.99
2022-11-22T03:04:30.882Z,99.99
2022-11-22T03:05:30.859Z,99.99
2022-11-22T03:06:30.862Z,99.99
2022-11-22T03:07:30.896Z,99.99
2022-11-22T03:08:30.843Z,99.99
2022-11-22T03:09:31.217Z,99.99
2022-11-22T03:10:30.824Z,99.99
2022-11-22T03:11:30.796Z,99.99
2022-11-22T03:12:30.805Z,99.99
2022-11-22T03:13:30.808Z,99.99
2022-11-22T03:14:30.788Z,99.99
2022-11-22T03:15:30.741Z,99.99
2022-11-22T03:16:30.759Z,99.99
2022-11-22T03:17:30.729Z,99.99
2022-11-22T03:18:30.734Z,99.99
2022-11-22T03:19:31.071Z,99.99
2022-11-22T03:20:30.716Z,99.99
2022-11-22T03:21:30.681Z,99.99
2022-11-22T03:22:30.693Z,99.99
2022-11-22T03:23:30.668Z,99.99
2022-11-22T03:24:30.686Z,99.99
2022-11-22T03:25:30.673Z,99.99
2022-11-22T03:26:30.653Z,99.99
2022-11-22T03:27:30.637Z,99.99
2022-11-22T03:28:30.634Z,99.99
2022-11-22T03:29:30.858Z,99.99
2022-11-22T03:30:30.613Z,99.99
2022-11-22T03:31:30.594Z,99.99
2022-11-22T03:32:30.593Z,99.99
2022-11-22T03:33:30.570Z,99.99
2022-11-22T03:34:30.573Z,99.99
2022-11-22T03:35:30.533Z,99.99
2022-11-22T03:36:30.548Z,99.99
2022-11-22T03:37:30.534Z,99.99
2022-11-22T03:38:30.537Z,99.99
2022-11-22T03:39:30.716Z,99.99
2022-11-22T03:40:30.505Z,99.99
2022-11-22T03:41:30.471Z,99.99
2022-11-22T03:42:30.487Z,99.99
2022-11-22T03:43:30.464Z,99.99
2022-11-22T03:44:30.462Z,99.99
2022-11-22T03:45:30.428Z,99.99
2022-11-22T03:46:30.454Z,99.95
2022-11-22T03:47:30.407Z,99.99
2022-11-22T03:48:30.427Z,99.95
2022-11-22T03:49:30.600Z,99.99
2022-11-22T03:50:30.400Z,99.99
2022-11-22T03:51:30.367Z,99.99
2022-11-22T03:52:30.397Z,99.99
2022-11-22T03:53:30.345Z,99.99
2022-11-22T03:54:30.366Z,99.99
2022-11-22T03:55:30.358Z,99.99
2022-11-22T03:56:30.339Z,99.99
2022-11-22T03:57:30.317Z,99.99
2022-11-22T03:58:30.328Z,99.99
2022-11-22T03:59:30.565Z,99.99
2022-11-22T04:00:30.306Z,99.99
2022-11-22T04:01:30.371Z,99.99
2022-11-22T04:02:30.251Z,99.99
2022-11-22T04:03:30.261Z,99.99
2022-11-22T04:04:30.252Z,99.99
2022-11-22T04:05:30.223Z,99.99
2022-11-22T04:06:30.238Z,99.99
2022-11-22T04:07:30.283Z,99.99
2022-11-22T04:08:30.319Z,99.99
2022-11-22T04:09:30.623Z,99.99
2022-11-22T04:10:30.194Z,99.99
2022-11-22T04:11:30.160Z,99.99
2022-11-22T04:12:30.187Z,99.85
2022-11-22T04:13:30.169Z,99.95
2022-11-22T04:14:30.147Z,99.64
2022-11-22T04:15:30.121Z,99.64
2022-11-22T04:16:30.138Z,99.74
2022-11-22T04:17:30.094Z,99.95
2022-11-22T04:18:30.108Z,99.99
2022-11-22T04:19:30.470Z,99.95
2022-11-22T04:20:30.087Z,99.99
2022-11-22T04:21:30.054Z,99.99
2022-11-22T04:22:30.068Z,99.99
2022-11-22T04:23:34.020Z,99.99
2022-11-22T04:24:30.055Z,99.99
2022-11-22T04:25:30.049Z,99.99
2022-11-22T04:26:30.035Z,99.99
2022-11-22T04:27:29.997Z,99.99
2022-11-22T04:28:53.981Z,99.99
2022-11-22T04:29:30.216Z,99.99
2022-11-22T04:30:29.986Z,99.99
2022-11-22T04:31:29.969Z,99.99
2022-11-22T04:32:29.972Z,99.99
2022-11-22T04:33:29.930Z,99.99
2022-11-22T04:34:29.941Z,99.99
2022-11-22T04:35:29.913Z,99.99
2022-11-22T04:36:29.924Z,99.99
2022-11-22T04:37:29.910Z,99.99
2022-11-22T04:38:29.912Z,99.99
2022-11-22T04:39:30.165Z,99.99
2022-11-22T04:40:29.881Z,99.99
2022-11-22T04:41:29.857Z,99.99
2022-11-22T04:42:29.856Z,99.99
2022-11-22T04:43:29.856Z,99.99
2022-11-22T04:44:29.845Z,99.99
2022-11-22T04:45:29.814Z,99.99
2022-11-22T04:46:29.813Z,99.99
2022-11-22T04:47:29.785Z,99.99
2022-11-22T04:48:29.790Z,99.99
2022-11-22T04:49:30.029Z,99.99
2022-11-22T04:50:29.776Z,99.99
2022-11-22T04:51:29.745Z,99.99
2022-11-22T04:52:29.753Z,99.99
2022-11-22T04:53:29.739Z,99.99
2022-11-22T04:54:29.736Z,99.99
2022-11-22T04:55:29.730Z,99.99
2022-11-22T04:56:29.719Z,99.99
2022-11-22T04:57:29.680Z,99.79
2022-11-22T04:58:29.686Z,99.79
2022-11-22T04:59:30.004Z,99.33
2022-11-22T05:00:29.671Z,99.23
2022-11-22T05:01:29.725Z,99.43
2022-11-22T05:02:29.634Z,98.71
2022-11-22T05:03:29.651Z,98.92
2022-11-22T05:04:29.626Z,98.71
2022-11-22T05:05:29.636Z,98.71
2022-11-22T05:06:29.588Z,98.92
2022-11-22T05:07:29.792Z,99.23
2022-11-22T05:08:29.563Z,99.54
2022-11-22T05:09:29.871Z,99.54
2022-11-22T05:10:29.584Z,99.79
2022-11-22T05:11:29.564Z,99.90
2022-11-22T05:12:29.517Z,99.99
2022-11-22T05:13:29.563Z,99.99
2022-11-22T05:14:29.503Z,99.99
2022-11-22T05:15:29.508Z,99.99
2022-11-22T05:16:29.520Z,99.99
2022-11-22T05:17:29.490Z,99.99
2022-11-22T05:18:29.469Z,99.99
2022-11-22T05:19:29.727Z,99.99
2022-11-22T05:20:29.434Z,99.99
2022-11-22T05:21:29.451Z,99.99
2022-11-22T05:22:29.425Z,99.99
2022-11-22T05:23:29.450Z,99.99
2022-11-22T05:24:29.400Z,99.99
2022-11-22T05:25:29.433Z,99.99
2022-11-22T05:26:29.373Z,99.99
2022-11-22T05:27:29.402Z,99.99
2022-11-22T05:28:29.352Z,99.99
2022-11-22T05:29:29.753Z,99.99
2022-11-22T05:30:29.341Z,99.99
2022-11-22T05:31:29.360Z,99.99
2022-11-22T05:32:29.318Z,99.99
2022-11-22T05:33:29.334Z,99.99
2022-11-22T05:34:29.295Z,99.99
2022-11-22T05:35:29.302Z,99.99
2022-11-22T05:36:29.268Z,99.99
2022-11-22T05:37:29.310Z,99.99
2022-11-22T05:38:29.255Z,99.99
2022-11-22T05:39:29.689Z,99.99
2022-11-22T05:40:29.226Z,99.99
2022-11-22T05:41:29.246Z,99.99
2022-11-22T05:42:29.214Z,99.99
2022-11-22T05:43:29.238Z,99.99
2022-11-22T05:44:29.185Z,99.99
2022-11-22T05:45:29.200Z,99.99
2022-11-22T05:46:29.178Z,99.99
2022-11-22T05:47:29.176Z,99.99
2022-11-22T05:48:29.148Z,99.99
2022-11-22T05:49:29.521Z,99.99
2022-11-22T05:50:29.126Z,99.99
2022-11-22T05:51:34.226Z,99.99
2022-11-22T05:52:29.112Z,99.99
2022-11-22T05:53:29.127Z,99.99
2022-11-22T05:54:29.114Z,99.99
2022-11-22T05:55:29.111Z,99.99
2022-11-22T05:56:29.070Z,99.99
2022-11-22T05:57:29.072Z,99.99
2022-11-22T05:58:29.043Z,99.99
2022-11-22T05:59:29.439Z,99.99
2022-11-22T06:00:29.021Z,99.99
2022-11-22T06:01:29.064Z,99.99
2022-11-22T06:02:29.073Z,99.99
2022-11-22T06:03:29.014Z,99.99
2022-11-22T06:04:28.983Z,99.99
2022-11-22T06:05:29.008Z,99.99
2022-11-22T06:06:28.960Z,99.99
2022-11-22T06:07:29.197Z,99.99
2022-11-22T06:08:28.946Z,99.99
2022-11-22T06:09:29.245Z,99.99
2022-11-22T06:10:28.922Z,99.99
2022-11-22T06:11:28.956Z,99.99
2022-11-22T06:12:28.901Z,99.99
2022-11-22T06:13:28.917Z,99.99
2022-11-22T06:14:28.881Z,99.99
2022-11-22T06:15:28.884Z,99.99
2022-11-22T06:16:28.865Z,99.99
2022-11-22T06:17:28.897Z,99.99
2022-11-22T06:18:28.830Z,99.99
2022-11-22T06:19:29.112Z,99.99
2022-11-22T06:20:28.811Z,99.99
2022-11-22T06:21:28.825Z,99.99
2022-11-22T06:22:28.841Z,99.99
2022-11-22T06:23:28.813Z,99.99
2022-11-22T06:24:28.799Z,99.99
2022-11-22T06:25:28.784Z,99.99
2022-11-22T06:26:28.753Z,99.99
2022-11-22T06:27:28.786Z,99.99
2022-11-22T06:28:28.753Z,99.99
2022-11-22T06:29:29.201Z,99.99
2022-11-22T06:30:28.717Z,99.99
2022-11-22T06:31:28.739Z,99.99
2022-11-22T06:32:28.687Z,99.99
2022-11-22T06:33:28.734Z,99.99
2022-11-22T06:34:28.673Z,99.99
2022-11-22T06:35:28.691Z,99.99
2022-11-22T06:36:28.670Z,99.99
2022-11-22T06:37:28.658Z,99.99
2022-11-22T06:38:28.627Z,99.99
2022-11-22T06:39:29.083Z,99.99
2022-11-22T06:40:28.612Z,99.99
2022-11-22T06:41:28.616Z,99.99
2022-11-22T06:42:28.598Z,99.99
2022-11-22T06:43:28.602Z,99.99
2022-11-22T06:44:28.593Z,99.99
2022-11-22T06:45:28.585Z,99.99
2022-11-22T06:46:28.547Z,99.99
2022-11-22T06:47:28.550Z,99.99
2022-11-22T06:48:28.529Z,99.99
2022-11-22T06:49:29.045Z,99.99
2022-11-22T06:50:28.515Z,99.99
2022-11-22T06:51:28.556Z,99.99
2022-11-22T06:52:28.479Z,99.99
2022-11-22T06:53:46.173Z,99.99
2022-11-22T06:54:28.467Z,99.99
2022-11-22T06:55:49.789Z,99.99
2022-11-22T06:56:28.463Z,99.99
2022-11-22T06:57:28.450Z,99.99
2022-11-22T06:58:28.417Z,99.99
2022-11-22T06:59:28.882Z,99.99
2022-11-22T07:00:28.409Z,99.99
2022-11-22T07:01:28.595Z,99.99
2022-11-22T07:02:28.375Z,99.99
2022-11-22T07:03:28.446Z,99.99
2022-11-22T07:04:28.356Z,99.99
2022-11-22T07:05:28.366Z,99.99
2022-11-22T07:06:28.521Z,99.93
2022-11-22T07:07:28.398Z,99.62
2022-11-22T07:08:28.326Z,99.52
2022-11-22T07:09:28.682Z,99.10
2022-11-22T07:10:28.318Z,98.64
2022-11-22T07:11:28.304Z,98.95
2022-11-22T07:12:28.297Z,99.00
2022-11-22T07:13:28.285Z,97.91
2022-11-22T07:14:28.250Z,98.22
2022-11-22T07:15:28.277Z,98.22
2022-11-22T07:16:28.231Z,98.43
2022-11-22T07:17:28.282Z,98.64
2022-11-22T07:18:28.212Z,98.22
2022-11-22T07:19:28.677Z,97.91
2022-11-22T07:20:28.200Z,97.71
2022-11-22T07:21:28.203Z,97.39
2022-11-22T07:22:28.175Z,97.09
2022-11-22T07:23:28.192Z,97.39
2022-11-22T07:24:28.163Z,97.60
2022-11-22T07:25:28.163Z,97.81
2022-11-22T07:26:28.127Z,97.91
2022-11-22T07:27:28.147Z,97.60
2022-11-22T07:28:28.122Z,97.60
2022-11-22T07:29:28.514Z,97.60
2022-11-22T07:30:28.100Z,96.78
2022-11-22T07:31:28.111Z,97.19
2022-11-22T07:32:28.062Z,97.29
2022-11-22T07:33:28.080Z,97.39
2022-11-22T07:34:28.053Z,96.78
2022-11-22T07:35:28.053Z,96.78
2022-11-22T07:36:28.024Z,96.57
2022-11-22T07:37:28.079Z,96.21
2022-11-22T07:38:28.010Z,96.52
2022-11-22T07:39:28.184Z,96.62
2022-11-22T07:40:28.053Z,96.52
2022-11-22T07:41:27.992Z,96.21
2022-11-22T07:42:27.970Z,96.83
2022-11-22T07:43:28.005Z,95.80
2022-11-22T07:44:27.943Z,95.18
2022-11-22T07:45:27.960Z,95.70
2022-11-22T07:46:27.932Z,95.03
2022-11-22T07:47:27.931Z,94.82
2022-11-22T07:48:27.892Z,94.51
2022-11-22T07:49:28.094Z,95.14
2022-11-22T07:50:28.035Z,94.93
2022-11-22T07:51:27.895Z,94.93
2022-11-22T07:52:27.859Z,94.41
2022-11-22T07:53:27.867Z,94.72
2022-11-22T07:54:27.839Z,94.31
2022-11-22T07:55:27.909Z,94.51
2022-11-22T07:56:27.833Z,94.82
2022-11-22T07:57:27.858Z,93.48
2022-11-22T07:58:27.800Z,93.95
2022-11-22T07:59:27.957Z,93.33
2022-11-22T08:00:27.808Z,93.74
2022-11-22T08:01:27.870Z,93.54
2022-11-22T08:02:27.749Z,93.33
2022-11-22T08:03:29.317Z,92.81
2022-11-22T08:04:27.759Z,92.19
2022-11-22T08:05:27.742Z,91.94
2022-11-22T08:06:27.732Z,92.57
2022-11-22T08:07:27.781Z,92.05
2022-11-22T08:08:27.712Z,91.74
2022-11-22T08:09:28.002Z,90.66
2022-11-22T08:10:27.664Z,90.04
2022-11-22T08:11:27.678Z,89.11
2022-11-22T08:12:27.676Z,89.48
2022-11-22T08:13:27.673Z,90.52
2022-11-22T08:14:27.632Z,90.41
2022-11-22T08:15:27.664Z,90.31
2022-11-22T08:16:27.605Z,89.69
2022-11-22T08:17:27.628Z,91.13
2022-11-22T08:18:27.596Z,90.41
2022-11-22T08:19:27.769Z,90.20
2022-11-22T08:20:27.564Z,90.72
2022-11-22T08:21:27.585Z,90.72
2022-11-22T08:22:27.540Z,90.68
2022-11-22T08:23:27.567Z,89.34
2022-11-22T08:24:27.520Z,89.23
2022-11-22T08:25:27.534Z,88.78
2022-11-22T08:26:27.503Z,87.71
2022-11-22T08:27:27.530Z,86.36
2022-11-22T08:28:27.477Z,87.50
2022-11-22T08:29:27.722Z,86.63
2022-11-22T08:30:27.460Z,86.12
2022-11-22T08:31:27.473Z,86.02
2022-11-22T08:32:27.538Z,88.96
2022-11-22T08:33:27.447Z,87.11
2022-11-22T08:34:27.425Z,85.50
2022-11-22T08:35:27.430Z,85.39
2022-11-22T08:36:27.409Z,86.63
2022-11-22T08:37:27.405Z,86.84
2022-11-22T08:38:27.369Z,86.84
2022-11-22T08:39:27.693Z,85.81
2022-11-22T08:40:27.373Z,84.16
2022-11-22T08:41:27.373Z,86.12
2022-11-22T08:42:27.332Z,84.57
2022-11-22T08:43:27.362Z,86.16
2022-11-22T08:44:27.313Z,86.20
2022-11-22T08:45:27.385Z,86.30
2022-11-22T08:46:27.284Z,86.71
2022-11-22T08:47:27.325Z,88.06
2022-11-22T08:48:27.267Z,87.74
2022-11-22T08:49:27.500Z,88.37
2022-11-22T08:50:27.264Z,87.65
2022-11-22T08:51:27.265Z,87.34
2022-11-22T08:52:27.230Z,88.57
2022-11-22T08:53:27.243Z,88.16
2022-11-22T08:54:27.205Z,87.95
2022-11-22T08:55:27.231Z,87.02
2022-11-22T08:56:27.193Z,87.85
2022-11-22T08:57:27.192Z,87.13
2022-11-22T08:58:27.181Z,86.51
2022-11-22T08:59:27.406Z,86.92
2022-11-22T09:00:32.956Z,87.54
2022-11-22T09:01:27.232Z,87.54
2022-11-22T09:02:27.152Z,85.68
2022-11-22T09:03:27.141Z,86.20
2022-11-22T09:04:27.101Z,85.64
2022-11-22T09:05:27.260Z,84.81
2022-11-22T09:08:28.948Z,86.57
2022-11-22T09:09:42.533Z,84.41
2022-11-22T09:10:27.045Z,85.54
2022-11-22T09:11:27.050Z,84.20
2022-11-22T09:12:27.014Z,85.54
2022-11-22T09:13:27.048Z,85.64
2022-11-22T09:14:26.996Z,85.13
2022-11-22T09:15:26.998Z,83.58
2022-11-22T09:16:27.513Z,85.13
2022-11-22T09:17:26.981Z,86.47
2022-11-22T09:18:27.078Z,85.54
2022-11-22T09:19:26.936Z,85.23
2022-11-22T09:20:26.952Z,84.72
2022-11-22T09:21:26.940Z,85.23
2022-11-22T09:22:28.577Z,87.50
2022-11-22T09:23:26.903Z,84.51
2022-11-22T09:24:26.934Z,85.02
2022-11-22T09:25:26.922Z,86.78
2022-11-22T09:26:26.888Z,86.57
2022-11-22T09:27:26.856Z,85.64
2022-11-22T09:28:26.865Z,86.32
2022-11-22T09:29:26.879Z,86.63
2022-11-22T09:30:26.870Z,87.77
2022-11-22T09:31:26.810Z,88.70
2022-11-22T09:32:32.177Z,87.98
2022-11-22T09:33:26.800Z,87.56
2022-11-22T09:34:26.810Z,89.52
2022-11-22T09:35:26.780Z,87.35
2022-11-22T09:36:26.817Z,86.32
2022-11-22T09:37:26.749Z,85.50
2022-11-22T09:38:26.771Z,85.39
2022-11-22T09:39:26.767Z,83.91
2022-11-22T09:40:26.764Z,82.68
2022-11-22T09:41:26.718Z,82.54
2022-11-22T09:42:26.712Z,82.84
2022-11-22T09:43:26.684Z,81.81
2022-11-22T09:44:26.716Z,80.99
2022-11-22T09:45:26.664Z,80.99
2022-11-22T09:46:26.692Z,80.47
2022-11-22T09:47:26.654Z,82.02
2022-11-22T09:48:26.653Z,81.40
2022-11-22T09:49:26.628Z,81.30
2022-11-22T09:50:26.638Z,82.23
2022-11-22T09:51:26.629Z,80.37
2022-11-22T09:52:26.613Z,81.30
2022-11-22T09:53:26.582Z,82.84
2022-11-22T09:54:26.590Z,83.19
2022-11-22T09:55:26.569Z,81.71
2022-11-22T09:56:26.585Z,81.92
2022-11-22T09:57:26.547Z,79.55
2022-11-22T09:58:26.557Z,81.30
2022-11-22T09:59:26.520Z,80.89
2022-11-22T10:00:26.534Z,80.89
2022-11-22T10:01:26.593Z,80.37
2022-11-22T10:02:26.562Z,81.40
2022-11-22T10:03:26.471Z,80.58
2022-11-22T10:04:26.480Z,79.86
2022-11-22T10:05:26.452Z,80.37
2022-11-22T10:06:26.470Z,79.34
2022-11-22T10:07:26.470Z,79.96
2022-11-22T10:08:26.473Z,80.65
2022-11-22T10:09:26.411Z,80.13
2022-11-22T10:10:26.429Z,78.89
2022-11-22T10:11:26.401Z,78.07
2022-11-22T10:12:26.404Z,77.86
2022-11-22T10:13:26.389Z,76.53
2022-11-22T10:14:26.423Z,77.45
2022-11-22T10:15:26.349Z,78.48
2022-11-22T10:16:26.365Z,78.07
2022-11-22T10:17:26.325Z,77.14
2022-11-22T10:18:26.333Z,77.97
2022-11-22T10:19:26.312Z,77.25
2022-11-22T10:20:26.312Z,78.17
2022-11-22T10:21:26.300Z,78.28
2022-11-22T10:22:26.313Z,78.17
2022-11-22T10:23:26.257Z,79.10
2022-11-22T10:24:26.333Z,78.89
2022-11-22T10:25:26.235Z,77.66
2022-11-22T10:26:26.269Z,76.93
2022-11-22T10:27:26.234Z,76.73
2022-11-22T10:28:26.241Z,75.35
2022-11-22T10:29:26.198Z,73.71
2022-11-22T10:30:26.226Z,73.50
2022-11-22T10:31:26.234Z,74.84
2022-11-22T10:32:26.191Z,75.25
2022-11-22T10:33:26.197Z,76.59
2022-11-22T10:34:26.163Z,77.11
2022-11-22T10:35:26.165Z,77.11
2022-11-22T10:36:26.161Z,77.31
2022-11-22T10:37:26.116Z,77.83
2022-11-22T10:38:26.129Z,77.00
2022-11-22T10:39:31.479Z,76.76
2022-11-22T10:40:26.118Z,74.95
2022-11-22T10:41:26.084Z,74.74
2022-11-22T10:42:26.110Z,75.35
2022-11-22T10:43:26.053Z,74.84
2022-11-22T10:44:26.076Z,74.80
2022-11-22T10:45:26.029Z,75.52
2022-11-22T10:46:26.057Z,75.12
2022-11-22T10:47:28.160Z,74.26
2022-11-22T10:48:26.028Z,73.27
2022-11-22T10:49:25.984Z,70.66
2022-11-22T10:50:25.995Z,70.63
2022-11-22T10:51:25.966Z,69.37
2022-11-22T10:52:25.987Z,68.72
2022-11-22T10:53:25.964Z,67.93
2022-11-22T10:54:25.980Z,68.51
2022-11-22T10:55:25.922Z,68.45
2022-11-22T10:56:25.933Z,67.11
2022-11-22T10:57:25.934Z,67.05
2022-11-22T10:58:25.911Z,65.55
2022-11-22T10:59:29.014Z,65.34
2022-11-22T11:00:25.902Z,67.70
2022-11-22T11:01:25.992Z,67.40
2022-11-22T11:02:25.872Z,65.72
2022-11-22T11:03:25.884Z,64.22
2022-11-22T11:04:25.857Z,65.96
2022-11-22T11:05:25.813Z,65.24
2022-11-22T11:06:43.688Z,64.22
2022-11-22T11:07:25.833Z,63.91
2022-11-22T11:08:47.784Z,66.13
2022-11-22T11:10:33.762Z,62.93
2022-11-22T11:11:25.765Z,65.55
2022-11-22T11:12:25.771Z,65.04
2022-11-22T11:13:25.730Z,63.91
2022-11-22T11:14:25.753Z,64.12
2022-11-22T11:15:25.721Z,64.56
2022-11-22T11:16:25.720Z,66.88
2022-11-22T11:17:25.687Z,65.34
2022-11-22T11:18:25.707Z,65.27
2022-11-22T11:19:25.681Z,66.97
2022-11-22T11:20:25.678Z,67.14
2022-11-22T11:21:25.656Z,66.81
2022-11-22T11:22:50.224Z,64.38
2022-11-22T11:23:25.635Z,65.89
2022-11-22T11:24:25.637Z,66.74
2022-11-22T11:25:25.612Z,68.10
2022-11-22T11:26:25.635Z,67.08
2022-11-22T11:27:25.584Z,67.62
2022-11-22T11:28:25.595Z,67.86
2022-11-22T11:29:25.566Z,66.28
2022-11-22T11:30:25.634Z,65.84
2022-11-22T11:31:25.542Z,65.95
2022-11-22T11:32:25.556Z,66.87
2022-11-22T11:33:25.515Z,67.28
2022-11-22T11:34:25.527Z,66.25
2022-11-22T11:35:25.507Z,66.60
2022-11-22T11:36:25.727Z,67.03
2022-11-22T11:37:25.502Z,67.96
2022-11-22T11:38:25.487Z,69.53
2022-11-22T11:39:25.453Z,68.51
2022-11-22T11:40:25.467Z,70.08
2022-11-22T11:41:25.458Z,69.26
2022-11-22T11:42:25.455Z,70.49
2022-11-22T11:43:25.416Z,69.87
2022-11-22T11:44:25.421Z,70.28
2022-11-22T11:45:25.389Z,70.70
2022-11-22T11:46:25.534Z,69.80
2022-11-22T11:47:25.378Z,70.11
2022-11-22T11:48:25.393Z,72.06
2022-11-22T11:49:25.348Z,70.52
2022-11-22T11:50:25.490Z,70.32
2022-11-22T11:51:25.347Z,69.80
2022-11-22T11:52:25.356Z,72.38
2022-11-22T11:53:25.341Z,71.75
2022-11-22T11:54:25.318Z,71.11
2022-11-22T11:55:25.294Z,69.77
2022-11-22T11:56:25.311Z,70.49
2022-11-22T11:57:25.263Z,70.18
2022-11-22T11:58:25.301Z,69.98
2022-11-22T11:59:25.260Z,69.98
2022-11-22T12:00:25.259Z,70.18
2022-11-22T12:01:25.267Z,72.13
2022-11-22T12:02:25.348Z,70.83
2022-11-22T12:03:25.221Z,69.49
2022-11-22T12:04:25.225Z,70.86
2022-11-22T12:05:25.185Z,71.07
2022-11-22T12:06:25.226Z,70.86
2022-11-22T12:07:25.215Z,73.54
2022-11-22T12:08:25.174Z,72.51
2022-11-22T12:09:25.163Z,71.89
2022-11-22T12:10:25.174Z,72.61
2022-11-22T12:11:25.133Z,72.09
2022-11-22T12:12:25.164Z,71.55
2022-11-22T12:13:25.107Z,70.28
2022-11-22T12:14:27.888Z,71.59
2022-11-22T12:15:25.092Z,70.28
2022-11-22T12:16:25.102Z,70.08
2022-11-22T12:17:25.074Z,70.18
2022-11-22T12:18:25.064Z,70.28
2022-11-22T12:19:25.362Z,71.41
2022-11-22T12:20:25.053Z,70.01
2022-11-22T12:21:25.012Z,69.39
2022-11-22T12:22:48.117Z,71.51
2022-11-22T12:23:25.058Z,70.08
2022-11-22T12:25:32.670Z,69.90
2022-11-22T12:26:25.008Z,71.96
2022-11-22T12:27:24.958Z,70.73
2022-11-22T12:28:24.962Z,70.25
2022-11-22T12:29:24.924Z,70.21
2022-11-22T12:30:24.965Z,69.12
2022-11-22T12:31:24.921Z,68.24
2022-11-22T12:32:24.933Z,66.80
2022-11-22T12:33:24.902Z,66.63
2022-11-22T12:34:24.901Z,66.86
2022-11-22T12:35:24.861Z,67.30
2022-11-22T12:36:29.605Z,67.89
2022-11-22T12:37:24.872Z,66.42
2022-11-22T12:38:24.861Z,67.17
2022-11-22T12:39:24.819Z,67.20
2022-11-22T12:40:24.852Z,66.86
2022-11-22T12:41:24.803Z,67.20
2022-11-22T12:42:24.847Z,68.26
2022-11-22T12:43:24.809Z,68.40
2022-11-22T12:44:24.809Z,66.14
2022-11-22T12:45:24.767Z,66.42
2022-11-22T12:46:26.280Z,66.60
2022-11-22T12:47:24.753Z,66.70
2022-11-22T12:48:24.918Z,65.44
2022-11-22T12:49:24.712Z,66.60
2022-11-22T12:50:24.725Z,67.14
2022-11-22T12:51:24.690Z,67.03
2022-11-22T12:52:24.721Z,66.83
2022-11-22T12:53:24.693Z,66.14
2022-11-22T12:54:24.682Z,66.48
2022-11-22T12:55:24.652Z,68.26
2022-11-22T12:56:28.489Z,68.98